KEKY

Details ICAO KEKY
Name BESSEMER
Region United States
Timezone America/Chicago (UTC-6.0)
Plans Departing 1
Arriving 2
Stats Elevation 699 ft / 213 m (AMSL)
Location 33.312885° -86.925918°
Runways 1
Magnetic Variation 3.322° W
Sunrise 2017-12-16 12:46:11 UTC / 2017-12-16 06:46:11 Local
Sunset 2017-12-16 22:43:29 UTC / 2017-12-16 16:43:29 Local
Advertisement - Login to hide

Runways

ID Width Length Bearing (true) Bearing (mag) Surface Threshold Offset Overrun Length
05 100 ft / 30 m 5,700 ft / 1,737 m 49.68° 53.00° Asphalt 0 ft / 0 m 0 ft / 0 m
23 100 ft / 30 m 5,700 ft / 1,737 m 229.68° 233.00° Asphalt 0 ft / 0 m 0 ft / 0 m

Approach Navaids

Runway Type Ident Frequency Range Bearing (true) Bearing (mag) Slope Elevation
05 Localiser IEKY 111.75 MHz 18 nm / 33 km 49.68° 53.00° - 699 ft / 213 m (AMSL)
05 Glidescope IEKY 111.75 MHz 10 nm / 19 km 49.68° 53.00° 3.00° 699 ft / 213 m (AMSL)

Map

Weather


0- 5 10 15 20 25 30 35+ Temperature / ° C

Clouds and Precipitation
Forecast for 2017-12-17 00:00 UTC. Updated an hour ago

Ground ~20,000 ft ~40,000 ft Winds

METAR

KEKY 161956Z AUTO VRB04KT 10SM CLR 12/M03 A3024 RMK AO2 SLP263 T01171033

TAF

Not found

Frequencies

Recorded 118.82 MHz AWOS 3
Clearance 123.75 MHz BIRMINGHAM CLNC DEL
Unicom 123.00 MHz CTAF/UNICOM
Approach 124.90 MHz BIRMINGHAM APP/DEP
Warning: Do not use this data for real-world aviation or navigation. No guarantee of current accuracy is given.